Time;durP1;ratioP1;P1;durP2;ratioP2;P2;SDS_P1;SDS_P2;PMS_P1;PMS_P2;Temp;Humidity;BMP_temperature;BMP_pressure;BME280_temperature;BME280_humidity;BME280_pressure;Samples;Min_cycle;Max_cycle;Signal;HPM_P1;HPM_P2
2023/12/04 00:01:58;;;;;;;;;;;17.70;56.10;;;;;;5045875;28;42935;-83
2023/12/04 00:04:23;;;;;;;;;;;17.80;56.20;;;;;;5045095;28;43111;-83
2023/12/04 00:06:49;;;;;;;;;;;17.80;56.20;;;;;;5058923;28;43312;-81
2023/12/04 00:09:14;;;;;;;;;;;17.70;56.80;;;;;;5045015;28;42968;-80
2023/12/04 00:11:40;;;;;;;;;;;17.90;56.40;;;;;;5045539;28;42909;-81
2023/12/04 00:14:05;;;;;;;;;;;17.70;56.40;;;;;;5045242;28;42826;-81
2023/12/04 00:16:35;;;;;;;;;;;17.70;56.90;;;;;;5060608;28;42947;-83
2023/12/04 00:19:01;;;;;;;;;;;17.70;56.40;;;;;;5044628;28;42955;-81
2023/12/04 00:21:26;;;;;;;;;;;17.80;56.50;;;;;;5045530;28;43631;-84
2023/12/04 00:23:52;;;;;;;;;;;17.70;57.00;;;;;;5045059;28;42951;-82
2023/12/04 00:26:17;;;;;;;;;;;17.70;56.40;;;;;;5053316;28;42818;-83
2023/12/04 00:28:43;;;;;;;;;;;17.70;56.50;;;;;;5051688;28;43108;-80
2023/12/04 00:31:08;;;;;;;;;;;17.70;57.10;;;;;;5043100;28;43853;-83
2023/12/04 00:33:34;;;;;;;;;;;17.80;56.60;;;;;;5014846;28;43237;-83
2023/12/04 00:35:59;;;;;;;;;;;17.70;57.00;;;;;;5045252;28;43759;-83
2023/12/04 00:38:25;;;;;;;;;;;17.70;56.40;;;;;;5041700;28;43141;-83
2023/12/04 00:40:50;;;;;;;;;;;17.70;56.40;;;;;;5036279;28;42881;-80
2023/12/04 00:43:16;;;;;;;;;;;17.70;57.00;;;;;;5044531;28;43066;-84
2023/12/04 00:45:41;;;;;;;;;;;17.80;56.50;;;;;;5044890;28;42764;-79
2023/12/04 00:48:07;;;;;;;;;;;17.80;57.40;;;;;;5045424;28;43567;-84
2023/12/04 00:50:32;;;;;;;;;;;17.50;57.40;;;;;;5026341;28;43570;-78
2023/12/04 00:52:58;;;;;;;;;;;17.80;56.90;;;;;;5044368;28;42924;-79
2023/12/04 00:55:23;;;;;;;;;;;17.70;57.40;;;;;;5044497;28;43662;-79
2023/12/04 00:57:49;;;;;;;;;;;17.80;57.00;;;;;;5044885;28;43371;-79
2023/12/04 01:00:15;;;;;;;;;;;17.70;57.60;;;;;;5045145;28;43447;-80
2023/12/04 01:02:40;;;;;;;;;;;17.70;57.40;;;;;;5044332;28;43059;-82
2023/12/04 01:05:06;;;;;;;;;;;17.90;57.10;;;;;;5043170;28;43128;-84
2023/12/04 01:07:32;;;;;;;;;;;17.90;57.00;;;;;;5044252;28;42757;-82
2023/12/04 01:09:58;;;;;;;;;;;17.70;57.30;;;;;;5044604;28;42857;-83
2023/12/04 01:12:23;;;;;;;;;;;17.70;57.90;;;;;;5060232;28;42932;-80
2023/12/04 01:14:49;;;;;;;;;;;17.70;56.90;;;;;;5044398;28;43324;-83
2023/12/04 01:17:14;;;;;;;;;;;17.80;56.90;;;;;;5044327;28;43088;-83
2023/12/04 01:19:40;;;;;;;;;;;17.70;57.50;;;;;;5045049;28;43590;-79
2023/12/04 01:22:05;;;;;;;;;;;17.70;57.50;;;;;;5044587;28;42893;-79
2023/12/04 01:24:31;;;;;;;;;;;17.70;57.40;;;;;;5044630;28;42987;-79
2023/12/04 01:26:56;;;;;;;;;;;17.70;57.40;;;;;;5044105;28;42871;-79
2023/12/04 01:29:22;;;;;;;;;;;17.60;56.80;;;;;;5044615;28;43076;-82
2023/12/04 01:31:47;;;;;;;;;;;17.60;56.90;;;;;;5044247;28;43055;-79
2023/12/04 01:34:13;;;;;;;;;;;17.80;57.00;;;;;;5044240;28;42881;-82
2023/12/04 01:36:41;;;;;;;;;;;17.70;56.90;;;;;;5043472;28;43018;-82
2023/12/04 01:39:07;;;;;;;;;;;18.20;57.10;;;;;;5043930;28;43873;-79
2023/12/04 01:41:33;;;;;;;;;;;17.70;57.60;;;;;;5044339;28;43132;-79
2023/12/04 01:43:58;;;;;;;;;;;17.70;57.50;;;;;;5044477;28;42956;-79
2023/12/04 01:46:24;;;;;;;;;;;17.70;57.60;;;;;;5044169;28;42930;-79
2023/12/04 01:48:49;;;;;;;;;;;17.80;57.10;;;;;;5044063;28;43407;-82
2023/12/04 01:51:16;;;;;;;;;;;17.70;57.00;;;;;;5043804;28;42883;-80
2023/12/04 01:53:42;;;;;;;;;;;17.70;57.00;;;;;;5043598;28;43077;-84
2023/12/04 01:56:08;;;;;;;;;;;17.70;57.00;;;;;;5043645;28;42874;-83
2023/12/04 01:58:34;;;;;;;;;;;17.60;57.00;;;;;;5044160;28;43241;-82
2023/12/04 02:00:59;;;;;;;;;;;17.70;57.90;;;;;;5042682;28;42952;-80
2023/12/04 02:03:25;;;;;;;;;;;17.60;57.70;;;;;;5043523;28;43624;-81
2023/12/04 02:05:51;;;;;;;;;;;17.90;57.30;;;;;;5025044;28;42982;-83
2023/12/04 02:08:17;;;;;;;;;;;17.70;57.60;;;;;;5043168;28;43101;-80
2023/12/04 02:10:42;;;;;;;;;;;17.70;57.70;;;;;;5043133;28;42865;-83
2023/12/04 02:13:08;;;;;;;;;;;17.80;57.40;;;;;;5043697;28;43025;-83
2023/12/04 02:15:33;;;;;;;;;;;17.80;57.30;;;;;;5043512;28;42979;-83
2023/12/04 02:17:59;;;;;;;;;;;17.80;57.40;;;;;;5041586;28;44013;-80
2023/12/04 02:20:32;;;;;;;;;;;17.70;57.90;;;;;;5043322;28;42961;-81
2023/12/04 02:22:57;;;;;;;;;;;17.70;57.30;;;;;;5043281;28;42976;-84
2023/12/04 02:25:23;;;;;;;;;;;17.70;57.40;;;;;;5042820;28;43309;-83
2023/12/04 02:27:52;;;;;;;;;;;17.70;57.40;;;;;;5043240;28;43904;-83
2023/12/04 02:30:19;;;;;;;;;;;17.70;58.10;;;;;;5030846;28;42964;-82
2023/12/04 02:32:46;;;;;;;;;;;17.70;58.10;;;;;;5042978;28;43091;-83
2023/12/04 02:35:12;;;;;;;;;;;17.80;57.50;;;;;;5043655;28;42975;-82
2023/12/04 02:37:39;;;;;;;;;;;17.90;57.60;;;;;;5043477;28;42931;-83
2023/12/04 02:40:06;;;;;;;;;;;17.70;57.40;;;;;;5024868;28;42896;-84
2023/12/04 02:42:32;;;;;;;;;;;17.70;57.90;;;;;;5045140;28;43750;-80
2023/12/04 02:45:31;;;;;;;;;;;17.80;57.50;;;;;;5047395;28;43001;-82
2023/12/04 02:47:57;;;;;;;;;;;17.70;57.70;;;;;;5057220;28;42978;-80
2023/12/04 02:50:22;;;;;;;;;;;17.70;57.60;;;;;;5034827;28;43037;-79
2023/12/04 02:52:48;;;;;;;;;;;17.70;58.30;;;;;;5025663;28;43639;-83
2023/12/04 02:55:13;;;;;;;;;;;17.70;57.70;;;;;;5025885;28;42886;-80
2023/12/04 02:57:39;;;;;;;;;;;17.70;58.30;;;;;;5025453;28;42934;-83
2023/12/04 03:00:06;;;;;;;;;;;17.70;57.60;;;;;;5025221;28;42994;-79
2023/12/04 03:02:31;;;;;;;;;;;17.90;57.80;;;;;;5025616;28;42917;-80
2023/12/04 03:04:57;;;;;;;;;;;17.70;57.70;;;;;;5019412;28;43130;-79
2023/12/04 03:07:24;;;;;;;;;;;17.70;58.40;;;;;;5023070;28;43711;-80
2023/12/04 03:09:49;;;;;;;;;;;17.70;58.60;;;;;;5023045;28;43319;-80
2023/12/04 03:12:16;;;;;;;;;;;17.70;58.60;;;;;;5022560;28;42945;-82
2023/12/04 03:14:41;;;;;;;;;;;17.70;58.40;;;;;;5022695;28;43178;-80
2023/12/04 03:17:07;;;;;;;;;;;17.70;58.10;;;;;;5023328;28;43007;-84
2023/12/04 03:19:32;;;;;;;;;;;17.70;58.80;;;;;;5022872;28;42983;-83
2023/12/04 03:21:58;;;;;;;;;;;17.60;57.90;;;;;;5024034;28;42967;-84
2023/12/04 03:24:23;;;;;;;;;;;17.70;58.60;;;;;;5024738;28;43125;-83
2023/12/04 03:26:49;;;;;;;;;;;17.70;58.30;;;;;;5024357;28;42844;-84
2023/12/04 03:29:14;;;;;;;;;;;17.80;58.20;;;;;;5023876;28;43502;-81
2023/12/04 03:31:40;;;;;;;;;;;17.70;58.20;;;;;;5024465;28;43480;-79
2023/12/04 03:34:05;;;;;;;;;;;17.60;58.90;;;;;;5024729;28;43034;-82
2023/12/04 03:36:31;;;;;;;;;;;17.70;58.40;;;;;;5024679;28;43889;-81
2023/12/04 03:38:56;;;;;;;;;;;17.60;58.30;;;;;;5012964;28;43039;-83
2023/12/04 03:41:23;;;;;;;;;;;17.80;58.50;;;;;;5023684;28;43300;-83
2023/12/04 03:43:48;;;;;;;;;;;17.70;59.10;;;;;;5023818;28;42972;-84
2023/12/04 03:46:14;;;;;;;;;;;17.70;59.20;;;;;;5024177;28;43596;-82
2023/12/04 03:48:39;;;;;;;;;;;17.70;58.60;;;;;;5023804;28;42932;-83
2023/12/04 03:51:05;;;;;;;;;;;17.70;59.20;;;;;;4958367;28;1851416;-81
2023/12/04 03:53:30;;;;;;;;;;;17.20;58.90;;;;;;5044516;28;42880;-81
2023/12/04 03:55:58;;;;;;;;;;;17.70;58.70;;;;;;5045913;28;43006;-83
2023/12/04 03:58:23;;;;;;;;;;;17.70;59.10;;;;;;5051428;28;42891;-82
2023/12/04 04:00:49;;;;;;;;;;;17.70;59.30;;;;;;5045557;28;43406;-84
2023/12/04 04:03:14;;;;;;;;;;;17.70;59.30;;;;;;5044823;28;42935;-83
2023/12/04 04:05:40;;;;;;;;;;;17.70;59.40;;;;;;5045895;28;43719;-79
2023/12/04 04:08:07;;;;;;;;;;;17.60;59.20;;;;;;5045749;28;42826;-81
2023/12/04 04:10:33;;;;;;;;;;;17.70;59.30;;;;;;5045307;28;43132;-83
2023/12/04 04:12:58;;;;;;;;;;;17.60;59.10;;;;;;5045362;28;42916;-83
2023/12/04 04:15:24;;;;;;;;;;;17.70;59.30;;;;;;5045288;28;43625;-78
2023/12/04 04:17:50;;;;;;;;;;;17.90;58.80;;;;;;5043438;28;43044;-83
2023/12/04 04:20:16;;;;;;;;;;;17.70;58.80;;;;;;5045570;28;43494;-81
2023/12/04 04:22:41;;;;;;;;;;;17.70;59.20;;;;;;5045347;28;43035;-80
2023/12/04 04:25:07;;;;;;;;;;;17.80;58.80;;;;;;5044893;28;42998;-83
2023/12/04 04:27:33;;;;;;;;;;;17.70;59.20;;;;;;5045209;28;43090;-79
2023/12/04 04:29:59;;;;;;;;;;;17.60;59.20;;;;;;5044303;28;43772;-79
2023/12/04 04:32:24;;;;;;;;;;;17.70;59.40;;;;;;5045051;28;43013;-80
2023/12/04 04:34:50;;;;;;;;;;;16.90;58.90;;;;;;5035787;28;43604;-81
2023/12/04 04:37:15;;;;;;;;;;;17.70;59.40;;;;;;5045214;28;43079;-84
2023/12/04 04:39:41;;;;;;;;;;;17.70;58.80;;;;;;5045177;28;44037;-80
2023/12/04 04:42:06;;;;;;;;;;;17.70;58.80;;;;;;5044862;28;42900;-84
2023/12/04 04:44:32;;;;;;;;;;;17.70;58.90;;;;;;5044603;28;42953;-84
2023/12/04 04:46:57;;;;;;;;;;;17.70;58.90;;;;;;5044758;28;42876;-84
2023/12/04 04:49:23;;;;;;;;;;;17.40;58.70;;;;;;5044105;28;42943;-82
2023/12/04 04:51:48;;;;;;;;;;;17.70;58.70;;;;;;5045020;28;43609;-83
2023/12/04 04:54:14;;;;;;;;;;;17.70;58.70;;;;;;5043083;28;43432;-83
2023/12/04 04:56:39;;;;;;;;;;;17.80;58.80;;;;;;5045220;28;43015;-83
2023/12/04 04:59:05;;;;;;;;;;;17.70;58.70;;;;;;5044836;28;43948;-83
2023/12/04 05:01:30;;;;;;;;;;;17.60;58.60;;;;;;5044843;28;42872;-79
2023/12/04 05:03:56;;;;;;;;;;;17.60;59.30;;;;;;5041871;28;43404;-83
2023/12/04 05:06:22;;;;;;;;;;;17.60;59.30;;;;;;5055211;28;42821;-79
2023/12/04 05:08:48;;;;;;;;;;;17.70;58.70;;;;;;5044427;28;42948;-80
2023/12/04 05:11:16;;;;;;;;;;;17.70;58.70;;;;;;5044959;28;42935;-82
2023/12/04 05:13:42;;;;;;;;;;;17.70;59.00;;;;;;5039790;28;43794;-84
2023/12/04 05:16:08;;;;;;;;;;;17.60;59.20;;;;;;5044704;28;42829;-81
2023/12/04 05:18:33;;;;;;;;;;;17.60;58.70;;;;;;5037438;28;43740;-83
2023/12/04 05:20:59;;;;;;;;;;;17.60;59.30;;;;;;5043036;28;43035;-81
2023/12/04 05:23:24;;;;;;;;;;;17.60;58.80;;;;;;5043716;28;43003;-79
2023/12/04 05:25:50;;;;;;;;;;;17.70;58.80;;;;;;5056639;28;43059;-82
2023/12/04 05:28:15;;;;;;;;;;;17.60;58.90;;;;;;5041891;28;44035;-83
2023/12/04 05:30:41;;;;;;;;;;;17.60;59.30;;;;;;5037530;28;43166;-79
2023/12/04 05:33:06;;;;;;;;;;;17.70;58.80;;;;;;5039654;28;43113;-82
2023/12/04 05:35:34;;;;;;;;;;;17.70;58.70;;;;;;5042600;28;42976;-81
2023/12/04 05:37:59;;;;;;;;;;;17.70;59.30;;;;;;5044354;28;43491;-84
2023/12/04 05:40:25;;;;;;;;;;;17.70;58.80;;;;;;5044570;28;42887;-86
2023/12/04 05:42:50;;;;;;;;;;;17.60;58.80;;;;;;5026015;28;44444;-81
2023/12/04 05:45:16;;;;;;;;;;;17.60;58.70;;;;;;5044226;28;42833;-83
2023/12/04 05:47:41;;;;;;;;;;;17.70;59.30;;;;;;5033313;28;43153;-80
2023/12/04 05:50:07;;;;;;;;;;;17.60;58.70;;;;;;5025512;28;43143;-85
2023/12/04 05:52:33;;;;;;;;;;;17.60;59.30;;;;;;5023434;28;43283;-81
2023/12/04 05:54:58;;;;;;;;;;;17.60;59.30;;;;;;5015946;28;42808;-85
2023/12/04 05:57:24;;;;;;;;;;;17.60;58.70;;;;;;5019759;28;43833;-83
2023/12/04 05:59:49;;;;;;;;;;;17.60;58.70;;;;;;5001843;28;42974;-80
2023/12/04 06:02:15;;;;;;;;;;;17.50;58.60;;;;;;5022653;28;43445;-80
2023/12/04 06:04:41;;;;;;;;;;;17.60;59.30;;;;;;5022582;28;43026;-81
2023/12/04 06:07:07;;;;;;;;;;;17.70;58.70;;;;;;5022532;28;42981;-82
2023/12/04 06:09:33;;;;;;;;;;;17.50;58.60;;;;;;5005277;28;42992;-83
2023/12/04 06:12:04;;;;;;;;;;;17.70;58.80;;;;;;5004791;28;44013;-83
2023/12/04 06:14:30;;;;;;;;;;;17.60;58.70;;;;;;5004899;28;43052;-84
2023/12/04 06:16:56;;;;;;;;;;;17.60;58.70;;;;;;5006146;28;44412;-83
2023/12/04 06:19:21;;;;;;;;;;;17.70;58.80;;;;;;5026571;28;42964;-84
2023/12/04 06:21:47;;;;;;;;;;;17.60;59.40;;;;;;5026693;28;43476;-82
2023/12/04 06:24:12;;;;;;;;;;;17.60;59.40;;;;;;5009033;28;42797;-82
2023/12/04 06:26:41;;;;;;;;;;;17.60;58.90;;;;;;5026639;28;43519;-82
2023/12/04 06:29:06;;;;;;;;;;;17.50;58.90;;;;;;5027623;28;42968;-83
2023/12/04 06:31:32;;;;;;;;;;;17.60;58.90;;;;;;5026535;28;44814;-83
2023/12/04 06:33:58;;;;;;;;;;;17.60;59.40;;;;;;5027820;28;42924;-82
2023/12/04 06:36:24;;;;;;;;;;;17.50;58.80;;;;;;5026521;28;42926;-83
2023/12/04 06:38:51;;;;;;;;;;;17.60;58.90;;;;;;5027023;28;43037;-83
2023/12/04 06:41:18;;;;;;;;;;;21.90;61.20;;;;;;5026716;28;44140;-84
2023/12/04 06:43:44;;;;;;;;;;;17.50;58.80;;;;;;5026804;28;42861;-85
2023/12/04 06:46:11;;;;;;;;;;;17.60;58.90;;;;;;5026282;28;44714;-84
2023/12/04 06:48:36;;;;;;;;;;;17.60;58.90;;;;;;5026378;28;42889;-82
2023/12/04 06:51:02;;;;;;;;;;;17.50;58.80;;;;;;5043204;28;43000;-84
2023/12/04 06:53:27;;;;;;;;;;;17.50;59.50;;;;;;5046127;28;42929;-84
2023/12/04 06:55:53;;;;;;;;;;;17.50;59.50;;;;;;5046664;28;43793;-83
2023/12/04 06:58:18;;;;;;;;;;;17.60;59.00;;;;;;5046984;28;43067;-84
2023/12/04 07:00:44;;;;;;;;;;;17.50;59.60;;;;;;5046968;28;43304;-84
2023/12/04 07:03:09;;;;;;;;;;;17.60;59.00;;;;;;5046862;28;42878;-84
2023/12/04 07:05:35;;;;;;;;;;;17.50;59.50;;;;;;5047019;28;43022;-83
2023/12/04 07:08:00;;;;;;;;;;;17.50;59.00;;;;;;5062044;28;42962;-84
2023/12/04 07:10:26;;;;;;;;;;;17.50;59.60;;;;;;5046383;28;43045;-84
2023/12/04 07:12:51;;;;;;;;;;;17.60;59.00;;;;;;5046139;28;42955;-83
2023/12/04 07:15:17;;;;;;;;;;;17.60;59.00;;;;;;5045729;28;43037;-83
2023/12/04 07:17:43;;;;;;;;;;;17.50;59.80;;;;;;5028779;28;43023;-83
2023/12/04 07:20:08;;;;;;;;;;;17.50;59.00;;;;;;5046507;28;43376;-82
2023/12/04 07:22:34;;;;;;;;;;;17.50;59.10;;;;;;5048805;28;42781;-83
2023/12/04 07:25:00;;;;;;;;;;;17.50;59.80;;;;;;5055276;28;43043;-83
2023/12/04 07:27:25;;;;;;;;;;;17.30;59.00;;;;;;5047039;28;43422;-82
2023/12/04 07:29:51;;;;;;;;;;;17.60;59.20;;;;;;5045543;28;43609;-83
2023/12/04 07:32:18;;;;;;;;;;;17.50;59.10;;;;;;5046846;28;42912;-82
2023/12/04 07:34:43;;;;;;;;;;;17.60;59.20;;;;;;5046665;28;44420;-82
2023/12/04 07:37:09;;;;;;;;;;;17.60;59.70;;;;;;5046716;28;42957;-82
2023/12/04 07:39:34;;;;;;;;;;;17.60;59.20;;;;;;5046387;28;44090;-82
2023/12/04 07:42:00;;;;;;;;;;;17.50;59.20;;;;;;5061667;28;43165;-83
2023/12/04 07:44:25;;;;;;;;;;;17.50;59.30;;;;;;5033835;28;43049;-90
2023/12/04 07:46:51;;;;;;;;;;;17.60;58.90;;;;;;5046249;28;42958;-88
2023/12/04 07:49:16;;;;;;;;;;;17.40;58.30;;;;;;5012568;28;44593;-93
2023/12/04 07:51:42;;;;;;;;;;;17.40;58.00;;;;;;5026451;28;42873;-88
2023/12/04 07:54:07;;;;;;;;;;;17.50;57.60;;;;;;5025812;28;43469;-91
2023/12/04 07:56:33;;;;;;;;;;;17.60;57.60;;;;;;5025787;28;43027;-91
2023/12/04 07:58:58;;;;;;;;;;;17.60;57.40;;;;;;5025022;28;42913;-86
2023/12/04 08:01:24;;;;;;;;;;;17.60;57.20;;;;;;5025653;28;42770;-83
2023/12/04 08:03:49;;;;;;;;;;;17.60;57.10;;;;;;5025014;28;43748;-85
2023/12/04 08:06:18;;;;;;;;;;;17.50;57.00;;;;;;5025557;28;42954;-83
2023/12/04 08:08:43;;;;;;;;;;;17.80;58.00;;;;;;5025304;28;43380;-82
2023/12/04 08:11:13;;;;;;;;;;;17.40;57.40;;;;;;5025608;28;44104;-81
2023/12/04 08:13:38;;;;;;;;;;;17.50;57.70;;;;;;5025619;28;42937;-83
2023/12/04 08:16:04;;;;;;;;;;;17.50;58.30;;;;;;5026284;28;42915;-84
2023/12/04 08:18:30;;;;;;;;;;;17.30;57.30;;;;;;5024755;28;44857;-79
2023/12/04 08:20:55;;;;;;;;;;;17.50;57.90;;;;;;5026047;28;42965;-79
2023/12/04 08:23:21;;;;;;;;;;;17.50;57.90;;;;;;5025341;28;42889;-80
2023/12/04 08:25:46;;;;;;;;;;;17.50;57.70;;;;;;5007336;28;42936;-79
2023/12/04 08:28:12;;;;;;;;;;;17.40;57.70;;;;;;5025527;28;43374;-81
2023/12/04 08:30:38;;;;;;;;;;;17.40;57.70;;;;;;5006991;28;42922;-79
2023/12/04 08:33:04;;;;;;;;;;;17.40;57.50;;;;;;5024690;28;43823;-85
2023/12/04 08:35:29;;;;;;;;;;;17.50;57.00;;;;;;5024631;28;42980;-80
2023/12/04 08:37:55;;;;;;;;;;;18.30;57.40;;;;;;5025752;28;43244;-80
2023/12/04 08:40:20;;;;;;;;;;;17.40;57.60;;;;;;5024906;28;42937;-79
2023/12/04 08:42:46;;;;;;;;;;;17.40;57.50;;;;;;5024360;28;42865;-80
2023/12/04 08:45:11;;;;;;;;;;;17.40;57.50;;;;;;5024844;28;43005;-84
2023/12/04 08:47:37;;;;;;;;;;;17.40;57.50;;;;;;5025227;28;42989;-79
2023/12/04 08:50:03;;;;;;;;;;;17.30;57.40;;;;;;5034187;28;42888;-85
2023/12/04 08:52:28;;;;;;;;;;;17.30;57.40;;;;;;5044765;28;42891;-79
2023/12/04 08:54:54;;;;;;;;;;;17.30;57.40;;;;;;5044990;28;42908;-79
2023/12/04 08:57:19;;;;;;;;;;;17.40;56.80;;;;;;5044642;28;43555;-79
2023/12/04 08:59:45;;;;;;;;;;;17.30;56.80;;;;;;5045218;28;43004;-79
2023/12/04 09:02:11;;;;;;;;;;;17.40;56.80;;;;;;5044879;28;42931;-79
2023/12/04 09:04:37;;;;;;;;;;;17.30;57.30;;;;;;5045030;28;42908;-79
2023/12/04 09:07:02;;;;;;;;;;;17.30;56.70;;;;;;5044748;28;42936;-81
2023/12/04 09:09:28;;;;;;;;;;;17.30;57.30;;;;;;5044805;28;43004;-85
2023/12/04 09:11:53;;;;;;;;;;;17.30;56.60;;;;;;5026107;28;44401;-84
2023/12/04 09:14:19;;;;;;;;;;;17.30;57.20;;;;;;5045035;28;42951;-79
2023/12/04 09:16:44;;;;;;;;;;;17.30;57.20;;;;;;5043841;28;43626;-79
2023/12/04 09:19:10;;;;;;;;;;;17.40;56.70;;;;;;5044654;28;42892;-79
2023/12/04 09:21:35;;;;;;;;;;;17.40;56.60;;;;;;5045053;28;42952;-85
2023/12/04 09:24:01;;;;;;;;;;;17.30;56.60;;;;;;5044428;28;42912;-80
2023/12/04 09:26:27;;;;;;;;;;;17.20;57.10;;;;;;5044555;28;43469;-82
2023/12/04 09:28:53;;;;;;;;;;;17.30;57.30;;;;;;5044712;28;43144;-82
2023/12/04 09:31:19;;;;;;;;;;;17.30;56.60;;;;;;5044265;28;43487;-79
2023/12/04 09:33:44;;;;;;;;;;;17.20;57.10;;;;;;5045155;28;42948;-80
2023/12/04 09:36:10;;;;;;;;;;;17.30;56.50;;;;;;5044528;28;43408;-81
2023/12/04 09:38:36;;;;;;;;;;;17.30;56.60;;;;;;5044838;28;42946;-79
2023/12/04 09:41:02;;;;;;;;;;;17.20;56.50;;;;;;5044643;28;43108;-83
2023/12/04 09:43:31;;;;;;;;;;;17.30;56.50;;;;;;5031133;28;42815;-84
2023/12/04 09:45:57;;;;;;;;;;;17.20;56.50;;;;;;5048071;28;43537;-79
2023/12/04 09:48:25;;;;;;;;;;;17.20;57.00;;;;;;5044102;28;42931;-84
2023/12/04 09:50:51;;;;;;;;;;;17.20;57.00;;;;;;5044687;28;42982;-79
2023/12/04 09:53:17;;;;;;;;;;;17.20;56.40;;;;;;5048265;28;42948;-80
2023/12/04 09:55:42;;;;;;;;;;;17.20;56.40;;;;;;5047603;28;42786;-80
2023/12/04 09:58:10;;;;;;;;;;;17.20;57.10;;;;;;5048448;28;42850;-84
2023/12/04 10:00:36;;;;;;;;;;;17.30;57.00;;;;;;5047667;28;43533;-82
2023/12/04 10:03:02;;;;;;;;;;;17.20;57.00;;;;;;5048310;28;42909;-85
2023/12/04 10:05:27;;;;;;;;;;;17.20;56.40;;;;;;5048076;28;42967;-80
2023/12/04 10:07:53;;;;;;;;;;;17.20;56.40;;;;;;5048422;28;43086;-85
2023/12/04 10:10:19;;;;;;;;;;;17.40;57.10;;;;;;5047727;28;43837;-80
2023/12/04 10:12:44;;;;;;;;;;;17.20;56.90;;;;;;5048114;28;42790;-83
2023/12/04 10:15:11;;;;;;;;;;;17.30;56.30;;;;;;5047371;28;43443;-79
2023/12/04 10:17:37;;;;;;;;;;;17.20;56.20;;;;;;5047873;28;44105;-80
2023/12/04 10:20:12;;;;;;;;;;;17.30;56.90;;;;;;5048333;28;42927;-80
2023/12/04 10:22:58;;;;;;;;;;;17.20;56.10;;;;;;5047616;28;42839;-84
2023/12/04 10:25:25;;;;;;;;;;;17.20;56.50;;;;;;5046272;28;42960;-80
2023/12/04 10:27:51;;;;;;;;;;;17.30;56.70;;;;;;5046769;28;42981;-79
2023/12/04 10:30:31;;;;;;;;;;;17.30;56.20;;;;;;5047069;28;43117;-79
2023/12/04 10:33:00;;;;;;;;;;;17.20;56.10;;;;;;5045973;28;42943;-83
2023/12/04 10:35:30;;;;;;;;;;;17.10;56.00;;;;;;5046977;28;43311;-79
2023/12/04 10:37:55;;;;;;;;;;;17.20;55.90;;;;;;5028632;28;43891;-83
2023/12/04 10:40:28;;;;;;;;;;;17.20;56.50;;;;;;5046778;28;43644;-80
2023/12/04 10:43:09;;;;;;;;;;;17.30;55.90;;;;;;5047758;28;43019;-79
2023/12/04 10:45:34;;;;;;;;;;;17.20;55.90;;;;;;5047122;28;44062;-85
2023/12/04 10:48:00;;;;;;;;;;;17.30;56.00;;;;;;5046816;28;42948;-80
2023/12/04 10:50:26;;;;;;;;;;;17.20;56.50;;;;;;5035016;28;43080;-81
2023/12/04 10:52:53;;;;;;;;;;;17.00;55.90;;;;;;5027312;28;43088;-85
2023/12/04 10:55:19;;;;;;;;;;;17.20;55.90;;;;;;5025527;28;42920;-84
2023/12/04 10:57:46;;;;;;;;;;;17.20;56.60;;;;;;5026733;28;42937;-86
2023/12/04 11:00:16;;;;;;;;;;;17.20;56.40;;;;;;5025631;28;42929;-85
2023/12/04 11:02:48;;;;;;;;;;;17.20;56.30;;;;;;5026619;28;43045;-85
2023/12/04 11:05:17;;;;;;;;;;;17.20;56.30;;;;;;5026631;28;42770;-84
2023/12/04 11:07:51;;;;;;;;;;;17.10;56.30;;;;;;5026769;28;43275;-81
2023/12/04 11:10:17;;;;;;;;;;;17.20;55.80;;;;;;5026199;28;43441;-81
2023/12/04 11:12:45;;;;;;;;;;;17.30;55.70;;;;;;5026120;28;42992;-79
2023/12/04 11:15:12;;;;;;;;;;;17.10;56.20;;;;;;5025803;28;42961;-80
2023/12/04 11:17:38;;;;;;;;;;;17.20;56.40;;;;;;5026375;28;42853;-80
2023/12/04 11:20:07;;;;;;;;;;;17.20;56.30;;;;;;5025464;28;42839;-79
2023/12/04 11:22:35;;;;;;;;;;;17.10;56.00;;;;;;5026425;28;43112;-81
2023/12/04 11:25:04;;;;;;;;;;;17.10;56.10;;;;;;5025576;28;42889;-80
2023/12/04 11:27:31;;;;;;;;;;;17.10;55.50;;;;;;5026229;28;42833;-79
2023/12/04 11:29:57;;;;;;;;;;;17.10;55.60;;;;;;5008003;28;44226;-81
2023/12/04 11:32:24;;;;;;;;;;;17.20;56.20;;;;;;5026444;28;42924;-79
2023/12/04 11:34:50;;;;;;;;;;;17.20;55.50;;;;;;5014182;28;42830;-82
2023/12/04 11:37:15;;;;;;;;;;;17.10;55.80;;;;;;5026079;28;42927;-80
2023/12/04 11:39:41;;;;;;;;;;;17.10;55.90;;;;;;5026485;28;43347;-82
2023/12/04 11:42:06;;;;;;;;;;;17.10;56.00;;;;;;5026644;28;42993;-82
2023/12/04 11:44:32;;;;;;;;;;;17.20;56.00;;;;;;5025597;28;43973;-81
2023/12/04 11:47:03;;;;;;;;;;;17.20;55.40;;;;;;5026214;28;42974;-82
2023/12/04 11:49:29;;;;;;;;;;;17.10;55.40;;;;;;5013031;28;42967;-80
2023/12/04 11:51:58;;;;;;;;;;;17.10;55.40;;;;;;5025583;28;43020;-79
2023/12/04 11:54:26;;;;;;;;;;;17.10;55.50;;;;;;5025383;28;43593;-79
2023/12/04 11:57:10;;;;;;;;;;;17.10;55.90;;;;;;5025763;28;42946;-81
2023/12/04 11:59:38;;;;;;;;;;;17.10;55.50;;;;;;5026302;28;43603;-79
2023/12/04 12:02:07;;;;;;;;;;;17.10;55.50;;;;;;5029081;28;42996;-79
2023/12/04 12:04:33;;;;;;;;;;;17.00;55.90;;;;;;5020809;28;42885;-80
2023/12/04 12:06:58;;;;;;;;;;;17.00;55.30;;;;;;5023941;28;42973;-79
2023/12/04 12:09:24;;;;;;;;;;;17.10;56.00;;;;;;5025526;28;43347;-81
2023/12/04 12:11:49;;;;;;;;;;;17.10;56.00;;;;;;5025180;28;43075;-79
2023/12/04 12:14:15;;;;;;;;;;;17.00;56.00;;;;;;5024298;28;43537;-78
2023/12/04 12:16:41;;;;;;;;;;;17.10;55.40;;;;;;5024979;28;42954;-85
2023/12/04 12:19:07;;;;;;;;;;;17.10;56.00;;;;;;5025749;28;42873;-84
2023/12/04 12:21:32;;;;;;;;;;;17.10;56.00;;;;;;5025578;28;42881;-84
2023/12/04 12:23:58;;;;;;;;;;;17.10;55.40;;;;;;5025320;28;43405;-84
2023/12/04 12:26:23;;;;;;;;;;;17.10;55.40;;;;;;5025268;28;42933;-79
2023/12/04 12:28:49;;;;;;;;;;;17.10;55.30;;;;;;5025816;28;43802;-78
2023/12/04 12:31:15;;;;;;;;;;;17.10;56.00;;;;;;5008060;28;42945;-83
2023/12/04 12:33:40;;;;;;;;;;;17.10;56.10;;;;;;5025485;28;42827;-81
2023/12/04 12:36:17;;;;;;;;;;;17.10;55.30;;;;;;5081110;28;43235;-79
2023/12/04 12:38:49;;;;;;;;;;;17.10;55.30;;;;;;5063712;28;43688;-79
2023/12/04 12:41:16;;;;;;;;;;;17.10;55.80;;;;;;5080724;28;43286;-85
2023/12/04 12:43:41;;;;;;;;;;;17.00;55.90;;;;;;5080981;28;43540;-85
2023/12/04 12:46:07;;;;;;;;;;;17.20;55.30;;;;;;5061323;28;42977;-79
2023/12/04 12:48:33;;;;;;;;;;;17.00;55.30;;;;;;5061688;28;43143;-79
2023/12/04 12:50:58;;;;;;;;;;;17.00;55.30;;;;;;5061294;28;42947;-85
2023/12/04 12:53:24;;;;;;;;;;;17.00;55.30;;;;;;5061635;28;43250;-81
2023/12/04 12:55:49;;;;;;;;;;;17.20;55.30;;;;;;5042323;28;42899;-84
2023/12/04 12:58:20;;;;;;;;;;;16.90;55.20;;;;;;5052493;28;42947;-81
2023/12/04 13:00:46;;;;;;;;;;;17.10;55.40;;;;;;5060955;28;42999;-89
2023/12/04 13:03:15;;;;;;;;;;;16.80;41.30;;;;;;5061619;28;43690;-90
2023/12/04 13:05:41;;;;;;;;;;;16.80;39.30;;;;;;5061706;28;43078;-91
2023/12/04 13:08:06;;;;;;;;;;;16.50;40.30;;;;;;5061661;28;43560;-86
2023/12/04 13:10:32;;;;;;;;;;;16.00;40.60;;;;;;5058348;28;43046;-80
2023/12/04 13:12:59;;;;;;;;;;;15.20;40.10;;;;;;5050606;28;43527;-81
2023/12/04 13:15:28;;;;;;;;;;;14.90;42.10;;;;;;5051495;28;43062;-81
2023/12/04 13:17:54;;;;;;;;;;;15.60;44.40;;;;;;5036676;28;44669;-81
2023/12/04 13:20:20;;;;;;;;;;;15.70;46.30;;;;;;5054574;28;42915;-83
2023/12/04 13:22:45;;;;;;;;;;;16.00;46.70;;;;;;5055191;28;42925;-82
2023/12/04 13:25:11;;;;;;;;;;;15.90;46.90;;;;;;5049627;28;42973;-83
2023/12/04 13:27:39;;;;;;;;;;;16.30;47.40;;;;;;5059878;28;43550;-82
2023/12/04 13:30:05;;;;;;;;;;;16.20;47.50;;;;;;5061000;28;42931;-80
2023/12/04 13:32:33;;;;;;;;;;;16.50;47.80;;;;;;5023169;28;45683;-81
2023/12/04 13:34:58;;;;;;;;;;;16.30;48.00;;;;;;5060269;28;43054;-79
2023/12/04 13:37:26;;;;;;;;;;;16.50;48.30;;;;;;5060026;28;43478;-89
2023/12/04 13:39:57;;;;;;;;;;;16.60;48.50;;;;;;5073139;28;43171;-89
2023/12/04 13:45:12;;;;;;;;;;;16.60;48.50;;;;;;5057751;28;42908;-80
2023/12/04 13:47:38;;;;;;;;;;;16.50;49.30;;;;;;5057943;28;43548;-82
2023/12/04 13:50:05;;;;;;;;;;;16.60;49.70;;;;;;5053922;28;43060;-84
2023/12/04 13:52:33;;;;;;;;;;;16.60;49.70;;;;;;5057667;28;42959;-81
2023/12/04 13:54:59;;;;;;;;;;;16.60;50.00;;;;;;5044465;28;43133;-81
2023/12/04 13:57:32;;;;;;;;;;;16.70;49.60;;;;;;5049679;28;42979;-80
2023/12/04 13:59:58;;;;;;;;;;;16.60;49.70;;;;;;5057922;28;42974;-80
2023/12/04 14:02:24;;;;;;;;;;;16.70;49.90;;;;;;5037299;28;45356;-87
2023/12/04 14:04:49;;;;;;;;;;;16.70;50.50;;;;;;5061178;28;43039;-81
2023/12/04 14:07:15;;;;;;;;;;;16.70;50.00;;;;;;5030075;28;45156;-82
2023/12/04 14:09:41;;;;;;;;;;;16.70;50.10;;;;;;5060737;28;42964;-82
2023/12/04 14:12:07;;;;;;;;;;;16.90;50.40;;;;;;5036199;28;43536;-81
2023/12/04 14:14:36;;;;;;;;;;;16.80;50.70;;;;;;5060440;28;43986;-82